sensor_id;sensor_type;location;lat;lon;timestamp;temperature;humidity
35299;DHT22;21415;48.054;16.646;2022-09-20T00:01:21;17.00;47.90
35299;DHT22;21415;48.054;16.646;2022-09-20T00:03:49;17.00;48.00
35299;DHT22;21415;48.054;16.646;2022-09-20T00:06:17;17.00;48.00
35299;DHT22;21415;48.054;16.646;2022-09-20T00:08:44;17.00;48.10
35299;DHT22;21415;48.054;16.646;2022-09-20T00:11:16;17.00;48.10
35299;DHT22;21415;48.054;16.646;2022-09-20T00:13:44;17.00;48.20
35299;DHT22;21415;48.054;16.646;2022-09-20T00:16:13;16.90;48.10
35299;DHT22;21415;48.054;16.646;2022-09-20T00:18:39;17.00;48.20
35299;DHT22;21415;48.054;16.646;2022-09-20T00:21:06;16.90;48.20
35299;DHT22;21415;48.054;16.646;2022-09-20T00:23:31;17.00;48.30
35299;DHT22;21415;48.054;16.646;2022-09-20T00:25:58;17.00;48.40
35299;DHT22;21415;48.054;16.646;2022-09-20T00:28:25;17.00;48.20
35299;DHT22;21415;48.054;16.646;2022-09-20T00:30:51;17.00;48.00
35299;DHT22;21415;48.054;16.646;2022-09-20T00:33:18;17.00;48.30
35299;DHT22;21415;48.054;16.646;2022-09-20T00:35:44;16.90;47.90
35299;DHT22;21415;48.054;16.646;2022-09-20T00:38:10;16.90;48.20
35299;DHT22;21415;48.054;16.646;2022-09-20T00:40:39;16.90;48.10
35299;DHT22;21415;48.054;16.646;2022-09-20T00:43:05;16.90;47.90
35299;DHT22;21415;48.054;16.646;2022-09-20T00:45:31;16.90;48.10
35299;DHT22;21415;48.054;16.646;2022-09-20T00:50:42;16.90;48.40
35299;DHT22;21415;48.054;16.646;2022-09-20T00:53:12;16.80;48.80
35299;DHT22;21415;48.054;16.646;2022-09-20T00:55:45;16.80;48.40
35299;DHT22;21415;48.054;16.646;2022-09-20T00:58:13;16.80;48.80
35299;DHT22;21415;48.054;16.646;2022-09-20T01:00:39;16.80;49.10
35299;DHT22;21415;48.054;16.646;2022-09-20T01:03:09;16.80;48.60
35299;DHT22;21415;48.054;16.646;2022-09-20T01:05:36;16.80;48.80
35299;DHT22;21415;48.054;16.646;2022-09-20T01:08:04;16.70;48.70
35299;DHT22;21415;48.054;16.646;2022-09-20T01:10:31;16.70;48.70
35299;DHT22;21415;48.054;16.646;2022-09-20T01:12:57;16.70;48.70
35299;DHT22;21415;48.054;16.646;2022-09-20T01:15:24;16.70;48.70
35299;DHT22;21415;48.054;16.646;2022-09-20T01:17:54;16.70;48.70
35299;DHT22;21415;48.054;16.646;2022-09-20T01:20:23;16.60;48.70
35299;DHT22;21415;48.054;16.646;2022-09-20T01:23:06;16.70;48.70
35299;DHT22;21415;48.054;16.646;2022-09-20T01:28:18;16.70;48.70
35299;DHT22;21415;48.054;16.646;2022-09-20T01:33:51;16.60;49.00
35299;DHT22;21415;48.054;16.646;2022-09-20T01:36:24;16.60;49.10
35299;DHT22;21415;48.054;16.646;2022-09-20T01:39:10;16.50;48.80
35299;DHT22;21415;48.054;16.646;2022-09-20T01:41:39;16.50;49.10
35299;DHT22;21415;48.054;16.646;2022-09-20T01:46:55;16.50;49.20
35299;DHT22;21415;48.054;16.646;2022-09-20T01:49:48;16.50;49.00
35299;DHT22;21415;48.054;16.646;2022-09-20T01:52:26;16.40;49.10
35299;DHT22;21415;48.054;16.646;2022-09-20T01:55:06;16.40;48.70
35299;DHT22;21415;48.054;16.646;2022-09-20T02:00:22;16.40;49.00
35299;DHT22;21415;48.054;16.646;2022-09-20T02:11:15;16.30;49.20
35299;DHT22;21415;48.054;16.646;2022-09-20T02:13:52;16.30;49.30
35299;DHT22;21415;48.054;16.646;2022-09-20T02:19:21;16.20;49.40
35299;DHT22;21415;48.054;16.646;2022-09-20T02:44:17;16.10;49.60
35299;DHT22;21415;48.054;16.646;2022-09-20T02:47:18;16.10;49.60
35299;DHT22;21415;48.054;16.646;2022-09-20T02:55:16;16.00;49.70
35299;DHT22;21415;48.054;16.646;2022-09-20T03:00:19;15.90;50.20
35299;DHT22;21415;48.054;16.646;2022-09-20T03:05:57;15.90;50.00
35299;DHT22;21415;48.054;16.646;2022-09-20T03:08:54;15.90;50.20
35299;DHT22;21415;48.054;16.646;2022-09-20T03:14:29;15.90;50.40
35299;DHT22;21415;48.054;16.646;2022-09-20T03:17:11;15.90;50.60
35299;DHT22;21415;48.054;16.646;2022-09-20T03:20:14;15.90;50.40
35299;DHT22;21415;48.054;16.646;2022-09-20T03:23:12;15.90;50.90
35299;DHT22;21415;48.054;16.646;2022-09-20T03:37:57;16.00;51.10
35299;DHT22;21415;48.054;16.646;2022-09-20T03:42:52;16.10;50.50
35299;DHT22;21415;48.054;16.646;2022-09-20T03:45:56;16.10;50.50
35299;DHT22;21415;48.054;16.646;2022-09-20T03:48:53;16.10;51.00
35299;DHT22;21415;48.054;16.646;2022-09-20T03:57:27;16.10;51.00
35299;DHT22;21415;48.054;16.646;2022-09-20T04:09:27;16.20;51.00
35299;DHT22;21415;48.054;16.646;2022-09-20T04:12:24;16.10;51.50
35299;DHT22;21415;48.054;16.646;2022-09-20T04:18:21;16.20;51.30
35299;DHT22;21415;48.054;16.646;2022-09-20T04:21:15;16.20;51.10
35299;DHT22;21415;48.054;16.646;2022-09-20T04:26:26;16.20;50.90
35299;DHT22;21415;48.054;16.646;2022-09-20T04:31:46;16.20;51.20
35299;DHT22;21415;48.054;16.646;2022-09-20T04:34:24;16.10;51.30
35299;DHT22;21415;48.054;16.646;2022-09-20T04:37:35;16.10;51.20
35299;DHT22;21415;48.054;16.646;2022-09-20T04:40:19;16.20;51.50
35299;DHT22;21415;48.054;16.646;2022-09-20T04:43:22;16.10;51.30
35299;DHT22;21415;48.054;16.646;2022-09-20T04:46:36;16.20;51.50
35299;DHT22;21415;48.054;16.646;2022-09-20T04:52:42;16.20;51.60
35299;DHT22;21415;48.054;16.646;2022-09-20T04:55:39;16.20;51.60
35299;DHT22;21415;48.054;16.646;2022-09-20T04:58:48;16.20;51.70
35299;DHT22;21415;48.054;16.646;2022-09-20T05:05:08;16.30;51.70
35299;DHT22;21415;48.054;16.646;2022-09-20T05:10:51;16.30;51.30
35299;DHT22;21415;48.054;16.646;2022-09-20T05:29:47;16.50;51.70
35299;DHT22;21415;48.054;16.646;2022-09-20T05:43:12;16.60;51.60
35299;DHT22;21415;48.054;16.646;2022-09-20T05:45:50;16.70;51.60
35299;DHT22;21415;48.054;16.646;2022-09-20T05:48:25;16.70;51.30
35299;DHT22;21415;48.054;16.646;2022-09-20T05:51:12;16.70;51.30
35299;DHT22;21415;48.054;16.646;2022-09-20T05:59:23;16.80;51.40
35299;DHT22;21415;48.054;16.646;2022-09-20T06:04:54;16.90;51.40
35299;DHT22;21415;48.054;16.646;2022-09-20T06:07:27;16.90;51.20
35299;DHT22;21415;48.054;16.646;2022-09-20T06:10:15;16.90;51.10
35299;DHT22;21415;48.054;16.646;2022-09-20T06:15:35;17.00;51.20
35299;DHT22;21415;48.054;16.646;2022-09-20T06:23:57;17.10;51.10
35299;DHT22;21415;48.054;16.646;2022-09-20T06:26:30;17.10;51.00
35299;DHT22;21415;48.054;16.646;2022-09-20T06:29:06;17.10;51.40
35299;DHT22;21415;48.054;16.646;2022-09-20T06:31:35;17.10;50.90
35299;DHT22;21415;48.054;16.646;2022-09-20T06:34:03;17.10;50.80
35299;DHT22;21415;48.054;16.646;2022-09-20T06:36:34;17.20;50.90
35299;DHT22;21415;48.054;16.646;2022-09-20T06:42:25;17.20;50.80
35299;DHT22;21415;48.054;16.646;2022-09-20T06:44:52;17.20;50.90
35299;DHT22;21415;48.054;16.646;2022-09-20T06:47:18;17.20;50.90
35299;DHT22;21415;48.054;16.646;2022-09-20T06:49:43;17.20;50.90
35299;DHT22;21415;48.054;16.646;2022-09-20T06:52:20;17.30;51.50
35299;DHT22;21415;48.054;16.646;2022-09-20T06:54:51;17.30;51.20
35299;DHT22;21415;48.054;16.646;2022-09-20T06:57:27;17.30;51.10
35299;DHT22;21415;48.054;16.646;2022-09-20T06:59:55;17.40;51.30
35299;DHT22;21415;48.054;16.646;2022-09-20T07:02:21;17.40;51.10
35299;DHT22;21415;48.054;16.646;2022-09-20T07:04:47;17.40;51.10
35299;DHT22;21415;48.054;16.646;2022-09-20T07:07:15;17.50;51.10
35299;DHT22;21415;48.054;16.646;2022-09-20T07:09:43;17.50;51.10
35299;DHT22;21415;48.054;16.646;2022-09-20T07:12:09;17.60;51.10
35299;DHT22;21415;48.054;16.646;2022-09-20T07:14:37;17.60;51.50
35299;DHT22;21415;48.054;16.646;2022-09-20T07:17:02;17.50;50.90
35299;DHT22;21415;48.054;16.646;2022-09-20T07:19:28;17.70;51.00
35299;DHT22;21415;48.054;16.646;2022-09-20T07:21:54;17.70;50.80
35299;DHT22;21415;48.054;16.646;2022-09-20T07:24:20;17.70;50.60
35299;DHT22;21415;48.054;16.646;2022-09-20T07:27:15;17.80;50.60
35299;DHT22;21415;48.054;16.646;2022-09-20T07:29:40;17.80;50.70
35299;DHT22;21415;48.054;16.646;2022-09-20T07:32:06;17.90;50.70
35299;DHT22;21415;48.054;16.646;2022-09-20T07:34:32;17.90;50.80
35299;DHT22;21415;48.054;16.646;2022-09-20T07:36:58;18.00;51.00
35299;DHT22;21415;48.054;16.646;2022-09-20T07:39:25;18.00;50.90
35299;DHT22;21415;48.054;16.646;2022-09-20T07:41:51;18.10;50.90
35299;DHT22;21415;48.054;16.646;2022-09-20T07:44:17;18.20;50.80
35299;DHT22;21415;48.054;16.646;2022-09-20T07:46:56;18.20;50.60
35299;DHT22;21415;48.054;16.646;2022-09-20T07:49:26;18.30;50.40
35299;DHT22;21415;48.054;16.646;2022-09-20T07:51:54;18.40;50.30
35299;DHT22;21415;48.054;16.646;2022-09-20T07:54:20;18.50;50.00
35299;DHT22;21415;48.054;16.646;2022-09-20T07:56:46;18.50;49.80
35299;DHT22;21415;48.054;16.646;2022-09-20T07:59:12;18.60;49.70
35299;DHT22;21415;48.054;16.646;2022-09-20T08:01:38;18.60;49.70
35299;DHT22;21415;48.054;16.646;2022-09-20T08:04:06;18.60;49.60
35299;DHT22;21415;48.054;16.646;2022-09-20T08:06:35;18.70;49.50
35299;DHT22;21415;48.054;16.646;2022-09-20T08:09:02;18.70;49.40
35299;DHT22;21415;48.054;16.646;2022-09-20T08:11:28;18.80;49.50
35299;DHT22;21415;48.054;16.646;2022-09-20T08:13:58;18.90;49.50
35299;DHT22;21415;48.054;16.646;2022-09-20T08:16:25;18.90;49.20
35299;DHT22;21415;48.054;16.646;2022-09-20T08:18:53;19.00;49.10
35299;DHT22;21415;48.054;16.646;2022-09-20T08:21:33;19.00;48.80
35299;DHT22;21415;48.054;16.646;2022-09-20T08:23:59;19.00;48.70
35299;DHT22;21415;48.054;16.646;2022-09-20T08:26:26;19.10;48.80
35299;DHT22;21415;48.054;16.646;2022-09-20T08:28:54;19.10;48.60
35299;DHT22;21415;48.054;16.646;2022-09-20T08:31:23;19.20;48.50
35299;DHT22;21415;48.054;16.646;2022-09-20T08:33:51;19.20;48.40
35299;DHT22;21415;48.054;16.646;2022-09-20T08:36:23;19.20;48.30
35299;DHT22;21415;48.054;16.646;2022-09-20T08:38:49;19.20;48.30
35299;DHT22;21415;48.054;16.646;2022-09-20T08:41:33;19.20;48.50
35299;DHT22;21415;48.054;16.646;2022-09-20T08:46:38;19.30;48.10
35299;DHT22;21415;48.054;16.646;2022-09-20T08:49:06;19.30;48.20
35299;DHT22;21415;48.054;16.646;2022-09-20T08:51:36;19.30;48.30
35299;DHT22;21415;48.054;16.646;2022-09-20T08:54:05;19.40;48.30
35299;DHT22;21415;48.054;16.646;2022-09-20T08:56:35;19.40;48.40
35299;DHT22;21415;48.054;16.646;2022-09-20T08:59:03;19.40;48.40
35299;DHT22;21415;48.054;16.646;2022-09-20T09:01:29;19.50;48.30
35299;DHT22;21415;48.054;16.646;2022-09-20T09:04:16;19.50;48.30
35299;DHT22;21415;48.054;16.646;2022-09-20T09:06:44;19.50;48.20
35299;DHT22;21415;48.054;16.646;2022-09-20T09:09:23;19.60;48.40
35299;DHT22;21415;48.054;16.646;2022-09-20T09:11:51;19.60;48.00
35299;DHT22;21415;48.054;16.646;2022-09-20T09:14:30;19.70;48.10
35299;DHT22;21415;48.054;16.646;2022-09-20T09:17:35;19.70;47.40
35299;DHT22;21415;48.054;16.646;2022-09-20T09:20:17;19.80;47.60
35299;DHT22;21415;48.054;16.646;2022-09-20T09:22:47;19.70;47.20
35299;DHT22;21415;48.054;16.646;2022-09-20T09:30:41;19.90;47.10
35299;DHT22;21415;48.054;16.646;2022-09-20T09:33:31;20.00;47.80
35299;DHT22;21415;48.054;16.646;2022-09-20T09:36:04;20.00;47.10
35299;DHT22;21415;48.054;16.646;2022-09-20T09:38:33;20.10;47.00
35299;DHT22;21415;48.054;16.646;2022-09-20T09:41:02;20.20;46.90
35299;DHT22;21415;48.054;16.646;2022-09-20T09:43:30;20.20;46.70
35299;DHT22;21415;48.054;16.646;2022-09-20T09:46:16;20.30;46.90
35299;DHT22;21415;48.054;16.646;2022-09-20T09:48:43;20.30;46.30
35299;DHT22;21415;48.054;16.646;2022-09-20T09:51:16;20.30;46.60
35299;DHT22;21415;48.054;16.646;2022-09-20T09:53:44;20.40;46.30
35299;DHT22;21415;48.054;16.646;2022-09-20T09:59:23;20.50;46.60
35299;DHT22;21415;48.054;16.646;2022-09-20T10:02:07;20.60;46.80
35299;DHT22;21415;48.054;16.646;2022-09-20T10:04:46;20.60;46.30
35299;DHT22;21415;48.054;16.646;2022-09-20T10:10:03;20.80;45.90
35299;DHT22;21415;48.054;16.646;2022-09-20T10:12:57;20.80;45.70
35299;DHT22;21415;48.054;16.646;2022-09-20T10:15:40;20.80;45.80
35299;DHT22;21415;48.054;16.646;2022-09-20T10:18:18;20.90;45.40
35299;DHT22;21415;48.054;16.646;2022-09-20T10:29:44;20.90;44.90
35299;DHT22;21415;48.054;16.646;2022-09-20T10:38:10;20.90;44.70
35299;DHT22;21415;48.054;16.646;2022-09-20T10:51:50;21.10;44.20
35299;DHT22;21415;48.054;16.646;2022-09-20T10:54:59;21.20;43.90
35299;DHT22;21415;48.054;16.646;2022-09-20T11:00:41;21.30;43.70
35299;DHT22;21415;48.054;16.646;2022-09-20T11:03:37;21.40;43.10
35299;DHT22;21415;48.054;16.646;2022-09-20T11:06:36;21.50;42.20
35299;DHT22;21415;48.054;16.646;2022-09-20T11:09:07;21.50;42.00
35299;DHT22;21415;48.054;16.646;2022-09-20T11:11:41;21.50;42.40
35299;DHT22;21415;48.054;16.646;2022-09-20T11:14:20;21.50;42.00
35299;DHT22;21415;48.054;16.646;2022-09-20T11:16:53;21.40;41.60
35299;DHT22;21415;48.054;16.646;2022-09-20T11:22:10;21.30;41.10
35299;DHT22;21415;48.054;16.646;2022-09-20T11:24:41;21.30;42.30
35299;DHT22;21415;48.054;16.646;2022-09-20T11:27:22;21.20;43.00
35299;DHT22;21415;48.054;16.646;2022-09-20T11:30:00;21.20;43.60
35299;DHT22;21415;48.054;16.646;2022-09-20T11:32:43;21.10;43.80
35299;DHT22;21415;48.054;16.646;2022-09-20T11:40:49;21.10;44.00
35299;DHT22;21415;48.054;16.646;2022-09-20T11:43:17;21.10;44.60
35299;DHT22;21415;48.054;16.646;2022-09-20T11:45:46;21.10;44.10
35299;DHT22;21415;48.054;16.646;2022-09-20T11:50:50;21.20;44.10
35299;DHT22;21415;48.054;16.646;2022-09-20T11:56:19;21.20;43.20
35299;DHT22;21415;48.054;16.646;2022-09-20T11:58:48;21.10;42.50
35299;DHT22;21415;48.054;16.646;2022-09-20T12:01:33;21.10;42.60
35299;DHT22;21415;48.054;16.646;2022-09-20T12:04:20;21.00;42.40
35299;DHT22;21415;48.054;16.646;2022-09-20T12:06:58;20.80;42.40
35299;DHT22;21415;48.054;16.646;2022-09-20T12:09:37;20.60;43.00
35299;DHT22;21415;48.054;16.646;2022-09-20T12:12:33;20.50;43.30
35299;DHT22;21415;48.054;16.646;2022-09-20T12:15:02;20.30;43.70
35299;DHT22;21415;48.054;16.646;2022-09-20T12:32:02;20.00;45.60
35299;DHT22;21415;48.054;16.646;2022-09-20T12:34:47;20.00;45.60
35299;DHT22;21415;48.054;16.646;2022-09-20T12:39:39;19.90;45.80
35299;DHT22;21415;48.054;16.646;2022-09-20T13:00:36;19.70;47.20
35299;DHT22;21415;48.054;16.646;2022-09-20T13:16:30;19.80;48.40
35299;DHT22;21415;48.054;16.646;2022-09-20T13:19:17;19.90;48.50
35299;DHT22;21415;48.054;16.646;2022-09-20T13:21:56;19.90;48.80
35299;DHT22;21415;48.054;16.646;2022-09-20T13:24:24;20.00;48.70
35299;DHT22;21415;48.054;16.646;2022-09-20T13:26:52;20.00;48.50
35299;DHT22;21415;48.054;16.646;2022-09-20T13:29:30;20.00;48.90
35299;DHT22;21415;48.054;16.646;2022-09-20T13:32:30;20.10;49.30
35299;DHT22;21415;48.054;16.646;2022-09-20T13:37:50;20.20;49.00
35299;DHT22;21415;48.054;16.646;2022-09-20T13:40:30;20.30;48.60
35299;DHT22;21415;48.054;16.646;2022-09-20T13:43:00;20.40;48.50
35299;DHT22;21415;48.054;16.646;2022-09-20T13:45:27;20.40;48.20
35299;DHT22;21415;48.054;16.646;2022-09-20T13:47:54;20.50;48.10
35299;DHT22;21415;48.054;16.646;2022-09-20T13:52:59;20.60;47.60
35299;DHT22;21415;48.054;16.646;2022-09-20T13:55:36;20.60;47.50
35299;DHT22;21415;48.054;16.646;2022-09-20T13:58:16;20.60;47.50
35299;DHT22;21415;48.054;16.646;2022-09-20T14:00:50;20.60;47.20
35299;DHT22;21415;48.054;16.646;2022-09-20T14:03:18;20.50;47.10
35299;DHT22;21415;48.054;16.646;2022-09-20T14:05:50;20.50;46.80
35299;DHT22;21415;48.054;16.646;2022-09-20T14:11:06;20.40;46.90
35299;DHT22;21415;48.054;16.646;2022-09-20T14:13:39;20.30;47.20
35299;DHT22;21415;48.054;16.646;2022-09-20T14:16:07;20.30;47.40
35299;DHT22;21415;48.054;16.646;2022-09-20T14:18:34;20.30;47.40
35299;DHT22;21415;48.054;16.646;2022-09-20T14:21:02;20.30;47.20
35299;DHT22;21415;48.054;16.646;2022-09-20T14:23:29;20.20;47.30
35299;DHT22;21415;48.054;16.646;2022-09-20T14:26:24;20.20;47.40
35299;DHT22;21415;48.054;16.646;2022-09-20T14:28:50;20.20;47.40
35299;DHT22;21415;48.054;16.646;2022-09-20T14:33:47;20.20;47.40
35299;DHT22;21415;48.054;16.646;2022-09-20T14:36:21;20.20;47.50
35299;DHT22;21415;48.054;16.646;2022-09-20T14:38:50;20.10;47.90
35299;DHT22;21415;48.054;16.646;2022-09-20T14:41:30;20.10;47.80
35299;DHT22;21415;48.054;16.646;2022-09-20T14:43:58;20.10;47.80
35299;DHT22;21415;48.054;16.646;2022-09-20T14:46:33;20.00;47.50
35299;DHT22;21415;48.054;16.646;2022-09-20T14:55:13;20.00;47.70
35299;DHT22;21415;48.054;16.646;2022-09-20T14:57:41;20.00;47.60
35299;DHT22;21415;48.054;16.646;2022-09-20T15:00:09;20.00;47.30
35299;DHT22;21415;48.054;16.646;2022-09-20T15:02:36;20.00;47.40
35299;DHT22;21415;48.054;16.646;2022-09-20T15:05:04;20.00;47.10
35299;DHT22;21415;48.054;16.646;2022-09-20T15:07:31;20.00;47.10
35299;DHT22;21415;48.054;16.646;2022-09-20T15:09:57;20.00;47.00
35299;DHT22;21415;48.054;16.646;2022-09-20T15:12:23;20.00;47.10
35299;DHT22;21415;48.054;16.646;2022-09-20T15:14:49;20.00;47.10
35299;DHT22;21415;48.054;16.646;2022-09-20T15:17:17;20.00;47.00
35299;DHT22;21415;48.054;16.646;2022-09-20T15:19:44;20.00;47.00
35299;DHT22;21415;48.054;16.646;2022-09-20T15:22:12;20.00;46.80
35299;DHT22;21415;48.054;16.646;2022-09-20T15:24:38;20.00;46.90
35299;DHT22;21415;48.054;16.646;2022-09-20T15:27:04;20.00;46.80
35299;DHT22;21415;48.054;16.646;2022-09-20T15:29:30;19.90;46.70
35299;DHT22;21415;48.054;16.646;2022-09-20T15:31:56;19.90;46.80
35299;DHT22;21415;48.054;16.646;2022-09-20T15:34:22;19.80;46.70
35299;DHT22;21415;48.054;16.646;2022-09-20T15:36:48;19.80;46.80
35299;DHT22;21415;48.054;16.646;2022-09-20T15:39:15;19.80;46.90
35299;DHT22;21415;48.054;16.646;2022-09-20T15:41:41;19.70;46.90
35299;DHT22;21415;48.054;16.646;2022-09-20T15:44:09;19.70;46.80
35299;DHT22;21415;48.054;16.646;2022-09-20T15:46:35;19.70;46.80
35299;DHT22;21415;48.054;16.646;2022-09-20T15:49:02;19.60;46.70
35299;DHT22;21415;48.054;16.646;2022-09-20T15:51:29;19.60;46.60
35299;DHT22;21415;48.054;16.646;2022-09-20T15:54:02;19.50;46.60
35299;DHT22;21415;48.054;16.646;2022-09-20T15:56:34;19.50;46.80
35299;DHT22;21415;48.054;16.646;2022-09-20T15:59:05;19.40;46.60
35299;DHT22;21415;48.054;16.646;2022-09-20T16:01:42;19.40;46.60
35299;DHT22;21415;48.054;16.646;2022-09-20T16:04:13;19.40;46.40
35299;DHT22;21415;48.054;16.646;2022-09-20T16:06:41;19.30;46.80
35299;DHT22;21415;48.054;16.646;2022-09-20T16:09:07;19.30;46.20
35299;DHT22;21415;48.054;16.646;2022-09-20T16:11:34;19.20;46.20
35299;DHT22;21415;48.054;16.646;2022-09-20T16:14:00;19.20;46.30
35299;DHT22;21415;48.054;16.646;2022-09-20T16:16:26;19.10;46.30
35299;DHT22;21415;48.054;16.646;2022-09-20T16:18:52;19.10;46.30
35299;DHT22;21415;48.054;16.646;2022-09-20T16:21:39;19.10;46.00
35299;DHT22;21415;48.054;16.646;2022-09-20T16:24:05;19.00;46.10
35299;DHT22;21415;48.054;16.646;2022-09-20T16:26:33;18.90;46.20
35299;DHT22;21415;48.054;16.646;2022-09-20T16:28:59;18.80;46.20
35299;DHT22;21415;48.054;16.646;2022-09-20T16:31:35;18.80;46.30
35299;DHT22;21415;48.054;16.646;2022-09-20T16:34:11;18.70;46.40
35299;DHT22;21415;48.054;16.646;2022-09-20T16:36:38;18.70;46.30
35299;DHT22;21415;48.054;16.646;2022-09-20T16:39:06;18.70;46.50
35299;DHT22;21415;48.054;16.646;2022-09-20T16:41:32;18.60;46.70
35299;DHT22;21415;48.054;16.646;2022-09-20T16:43:58;18.60;46.80
35299;DHT22;21415;48.054;16.646;2022-09-20T16:46:25;18.60;47.00
35299;DHT22;21415;48.054;16.646;2022-09-20T16:48:55;18.50;47.00
35299;DHT22;21415;48.054;16.646;2022-09-20T16:51:22;18.50;47.30
35299;DHT22;21415;48.054;16.646;2022-09-20T16:53:52;18.40;47.20
35299;DHT22;21415;48.054;16.646;2022-09-20T16:56:21;18.40;47.40
35299;DHT22;21415;48.054;16.646;2022-09-20T16:58:47;18.30;47.30
35299;DHT22;21415;48.054;16.646;2022-09-20T17:01:14;18.40;47.40
35299;DHT22;21415;48.054;16.646;2022-09-20T17:03:41;18.30;47.50
35299;DHT22;21415;48.054;16.646;2022-09-20T17:06:07;18.30;47.50
35299;DHT22;21415;48.054;16.646;2022-09-20T17:08:34;18.20;47.50
35299;DHT22;21415;48.054;16.646;2022-09-20T17:13:38;18.20;47.90
35299;DHT22;21415;48.054;16.646;2022-09-20T17:16:13;18.10;47.90
35299;DHT22;21415;48.054;16.646;2022-09-20T17:18:39;18.10;48.10
35299;DHT22;21415;48.054;16.646;2022-09-20T17:21:12;18.10;48.00
35299;DHT22;21415;48.054;16.646;2022-09-20T17:23:40;18.10;48.00
35299;DHT22;21415;48.054;16.646;2022-09-20T17:26:12;18.10;48.00
35299;DHT22;21415;48.054;16.646;2022-09-20T17:28:41;18.10;48.20
35299;DHT22;21415;48.054;16.646;2022-09-20T17:31:10;18.00;48.10
35299;DHT22;21415;48.054;16.646;2022-09-20T17:33:37;18.00;48.20
35299;DHT22;21415;48.054;16.646;2022-09-20T17:36:03;18.00;48.30
35299;DHT22;21415;48.054;16.646;2022-09-20T17:38:31;18.00;48.30
35299;DHT22;21415;48.054;16.646;2022-09-20T17:41:24;18.00;48.00
35299;DHT22;21415;48.054;16.646;2022-09-20T17:43:55;18.00;48.20
35299;DHT22;21415;48.054;16.646;2022-09-20T17:46:24;18.00;48.00
35299;DHT22;21415;48.054;16.646;2022-09-20T17:48:55;18.00;48.50
35299;DHT22;21415;48.054;16.646;2022-09-20T17:51:30;17.90;48.10
35299;DHT22;21415;48.054;16.646;2022-09-20T17:53:56;17.90;48.10
35299;DHT22;21415;48.054;16.646;2022-09-20T17:56:23;17.90;48.10
35299;DHT22;21415;48.054;16.646;2022-09-20T17:58:54;17.90;48.10
35299;DHT22;21415;48.054;16.646;2022-09-20T18:01:20;17.80;48.20
35299;DHT22;21415;48.054;16.646;2022-09-20T18:03:47;17.80;48.30
35299;DHT22;21415;48.054;16.646;2022-09-20T18:08:51;17.80;48.40
35299;DHT22;21415;48.054;16.646;2022-09-20T18:11:20;17.80;48.40
35299;DHT22;21415;48.054;16.646;2022-09-20T18:13:46;17.70;48.50
35299;DHT22;21415;48.054;16.646;2022-09-20T18:16:14;17.70;48.40
35299;DHT22;21415;48.054;16.646;2022-09-20T18:18:41;17.70;48.50
35299;DHT22;21415;48.054;16.646;2022-09-20T18:21:16;17.70;48.50
35299;DHT22;21415;48.054;16.646;2022-09-20T18:23:44;17.70;48.50
35299;DHT22;21415;48.054;16.646;2022-09-20T18:26:12;17.70;48.40
35299;DHT22;21415;48.054;16.646;2022-09-20T18:29:01;17.60;48.40
35299;DHT22;21415;48.054;16.646;2022-09-20T18:31:56;17.60;48.60
35299;DHT22;21415;48.054;16.646;2022-09-20T18:34:25;17.60;48.60
35299;DHT22;21415;48.054;16.646;2022-09-20T18:36:56;17.50;48.30
35299;DHT22;21415;48.054;16.646;2022-09-20T18:39:33;17.50;48.40
35299;DHT22;21415;48.054;16.646;2022-09-20T18:42:00;17.40;48.40
35299;DHT22;21415;48.054;16.646;2022-09-20T18:44:27;17.40;48.40
35299;DHT22;21415;48.054;16.646;2022-09-20T18:46:54;17.30;48.40
35299;DHT22;21415;48.054;16.646;2022-09-20T18:49:20;17.30;48.40
35299;DHT22;21415;48.054;16.646;2022-09-20T18:51:46;17.30;48.40
35299;DHT22;21415;48.054;16.646;2022-09-20T18:54:12;17.20;48.40
35299;DHT22;21415;48.054;16.646;2022-09-20T18:56:39;17.20;48.60
35299;DHT22;21415;48.054;16.646;2022-09-20T19:17:48;16.70;48.80
35299;DHT22;21415;48.054;16.646;2022-09-20T19:20:30;16.70;48.90
35299;DHT22;21415;48.054;16.646;2022-09-20T19:25:58;16.50;49.70
35299;DHT22;21415;48.054;16.646;2022-09-20T19:28:27;16.50;49.40
35299;DHT22;21415;48.054;16.646;2022-09-20T19:30:53;16.50;50.00
35299;DHT22;21415;48.054;16.646;2022-09-20T19:33:19;16.50;49.60
35299;DHT22;21415;48.054;16.646;2022-09-20T19:35:49;16.50;49.70
35299;DHT22;21415;48.054;16.646;2022-09-20T19:49:51;16.40;50.00
35299;DHT22;21415;48.054;16.646;2022-09-20T19:52:20;16.40;49.80
35299;DHT22;21415;48.054;16.646;2022-09-20T19:54:47;16.30;49.40
35299;DHT22;21415;48.054;16.646;2022-09-20T19:57:22;16.30;49.60
35299;DHT22;21415;48.054;16.646;2022-09-20T19:59:49;16.30;50.10
35299;DHT22;21415;48.054;16.646;2022-09-20T20:02:16;16.30;49.80
35299;DHT22;21415;48.054;16.646;2022-09-20T20:04:41;16.20;49.80
35299;DHT22;21415;48.054;16.646;2022-09-20T20:12:34;16.20;49.70
35299;DHT22;21415;48.054;16.646;2022-09-20T20:20:40;16.00;50.40
35299;DHT22;21415;48.054;16.646;2022-09-20T20:26:05;16.00;50.70
35299;DHT22;21415;48.054;16.646;2022-09-20T20:28:33;15.90;50.70
35299;DHT22;21415;48.054;16.646;2022-09-20T20:31:00;15.90;50.30
35299;DHT22;21415;48.054;16.646;2022-09-20T20:33:29;15.90;50.50
35299;DHT22;21415;48.054;16.646;2022-09-20T20:35:58;15.90;50.60
35299;DHT22;21415;48.054;16.646;2022-09-20T20:38:25;15.80;50.60
35299;DHT22;21415;48.054;16.646;2022-09-20T20:41:14;15.80;50.60
35299;DHT22;21415;48.054;16.646;2022-09-20T20:43:42;15.80;51.10
35299;DHT22;21415;48.054;16.646;2022-09-20T20:46:10;15.80;50.70
35299;DHT22;21415;48.054;16.646;2022-09-20T20:48:36;15.80;50.80
35299;DHT22;21415;48.054;16.646;2022-09-20T20:51:05;15.70;50.70
35299;DHT22;21415;48.054;16.646;2022-09-20T20:53:43;15.70;50.80
35299;DHT22;21415;48.054;16.646;2022-09-20T20:56:12;15.70;51.20
35299;DHT22;21415;48.054;16.646;2022-09-20T20:58:40;15.70;50.90
35299;DHT22;21415;48.054;16.646;2022-09-20T21:01:12;15.70;51.10
35299;DHT22;21415;48.054;16.646;2022-09-20T21:03:40;15.70;51.00
35299;DHT22;21415;48.054;16.646;2022-09-20T21:06:06;15.60;50.90
35299;DHT22;21415;48.054;16.646;2022-09-20T21:08:34;15.60;50.90
35299;DHT22;21415;48.054;16.646;2022-09-20T21:11:05;15.60;51.00
35299;DHT22;21415;48.054;16.646;2022-09-20T21:13:31;15.60;51.10
35299;DHT22;21415;48.054;16.646;2022-09-20T21:18:33;15.50;51.40
35299;DHT22;21415;48.054;16.646;2022-09-20T21:20:59;15.50;51.10
35299;DHT22;21415;48.054;16.646;2022-09-20T21:23:25;15.50;51.10